Time;durP1;ratioP1;P1;durP2;ratioP2;P2;SDS_P1;SDS_P2;PMS_P1;PMS_P2;Temp;Humidity;BMP_temperature;BMP_pressure;BME280_temperature;BME280_humidity;BME280_pressure;Samples;Min_cycle;Max_cycle;Signal;HPM_P1;HPM_P2
2021/06/17 00:01:14;;;;;;;8.00;7.40;;;;;;;23.96;46.89;101016.72;5046569;28;20193;-68
2021/06/17 00:03:39;;;;;;;9.40;8.53;;;;;;;24.29;46.31;101011.75;5056616;28;20209;-69
2021/06/17 00:06:04;;;;;;;13.67;8.47;;;;;;;24.83;45.52;101014.72;5055647;28;20174;-68
2021/06/17 00:08:29;;;;;;;10.00;8.30;;;;;;;24.14;46.34;101013.28;5039920;28;20210;-68
2021/06/17 00:10:55;;;;;;;9.33;8.40;;;;;;;23.88;47.04;101011.66;5045781;28;20194;-68
2021/06/17 00:13:26;;;;;;;9.20;8.30;;;;;;;23.68;47.58;101004.53;5059625;28;20213;-68
2021/06/17 00:15:55;;;;;;;9.80;8.90;;;;;;;23.46;48.26;101008.06;5058060;28;20196;-68
2021/06/17 00:18:20;;;;;;;8.57;7.87;;;;;;;23.58;47.54;101011.16;5053414;28;20436;-68
2021/06/17 00:20:47;;;;;;;9.20;7.70;;;;;;;23.65;47.64;101017.94;5049344;28;20813;-69
2021/06/17 00:23:12;;;;;;;8.60;7.70;;;;;;;23.72;47.64;101003.47;5059896;28;20180;-68
2021/06/17 00:25:39;;;;;;;9.37;8.03;;;;;;;23.31;48.53;101006.00;5059336;28;20866;-68
2021/06/17 00:28:04;;;;;;;8.00;7.40;;;;;;;23.85;47.18;100996.69;5056145;28;20536;-68
2021/06/17 00:30:29;;;;;;;7.70;7.10;;;;;;;23.43;48.04;101013.50;5049376;28;20474;-69
2021/06/17 00:32:55;;;;;;;8.83;7.60;;;;;;;23.60;47.88;101009.28;5057909;28;20185;-68
2021/06/17 00:35:22;;;;;;;8.20;7.50;;;;;;;23.64;47.52;101005.59;5059595;28;20234;-68
2021/06/17 00:37:48;;;;;;;8.67;7.87;;;;;;;22.94;49.32;101008.25;5058687;28;20173;-68
2021/06/17 00:40:14;;;;;;;11.90;7.53;;;;;;;23.30;48.73;101007.81;5039450;28;20471;-68
2021/06/17 00:42:41;;;;;;;9.03;7.30;;;;;;;23.76;47.50;100997.09;5039191;28;20432;-68
2021/06/17 00:45:10;;;;;;;8.00;7.40;;;;;;;23.28;48.42;101000.81;5050563;28;20797;-69
2021/06/17 00:47:35;;;;;;;8.30;7.60;;;;;;;23.62;47.58;100999.44;5057535;28;20503;-69
2021/06/17 00:50:02;;;;;;;8.40;7.60;;;;;;;22.82;48.93;100996.28;5039241;28;20757;-69
2021/06/17 00:52:27;;;;;;;9.80;8.10;;;;;;;23.49;47.81;100997.28;5039495;28;20166;-69
2021/06/17 00:54:57;;;;;;;8.77;8.00;;;;;;;23.28;47.78;101006.13;5038265;28;20555;-68
2021/06/17 00:57:22;;;;;;;8.50;7.70;;;;;;;23.20;48.18;101006.41;5039182;28;20175;-68
2021/06/17 00:59:47;;;;;;;10.77;7.57;;;;;;;23.28;48.10;101001.66;5056474;28;20439;-68
2021/06/17 01:02:12;;;;;;;8.50;7.80;;;;;;;22.64;49.32;101007.63;5056614;28;20558;-68
2021/06/17 01:04:38;;;;;;;10.43;8.20;;;;;;;22.96;48.56;101000.22;5058422;28;20185;-68
2021/06/17 01:07:03;;;;;;;9.77;7.80;;;;;;;23.39;47.86;100998.56;5059124;28;20234;-68
2021/06/17 01:10:03;;;;;;;8.70;7.90;;;;;;;22.85;48.83;101001.50;5043369;28;20488;-68
2021/06/17 01:13:10;;;;;;;8.60;7.63;;;;;;;23.09;48.33;100997.97;5039112;28;20463;-69
2021/06/17 01:15:40;;;;;;;8.27;7.43;;;;;;;23.32;47.16;100989.97;5045825;28;20437;-69
2021/06/17 01:18:09;;;;;;;9.40;7.30;;;;;;;22.93;48.90;100987.06;5051219;28;20551;-69
2021/06/17 01:20:42;;;;;;;9.13;8.23;;;;;;;22.90;48.77;100987.19;5038105;28;20456;-68
2021/06/17 01:23:20;;;;;;;11.63;7.90;;;;;;;22.80;48.60;100987.53;5037692;28;20416;-69
2021/06/17 01:25:59;;;;;;;12.90;8.00;;;;;;;22.94;48.54;100979.00;5042352;28;20770;-69
2021/06/17 01:28:25;;;;;;;7.47;6.80;;;;;;;22.77;48.39;100979.66;5052437;28;20816;-69
2021/06/17 01:30:56;;;;;;;7.90;6.93;;;;;;;23.20;47.85;100975.38;5042614;28;20715;-69
2021/06/17 01:33:23;;;;;;;7.70;7.10;;;;;;;22.88;48.65;100984.59;5055814;28;20750;-69
2021/06/17 01:35:49;;;;;;;8.57;7.67;;;;;;;22.89;48.49;100970.34;5052790;28;20429;-69
2021/06/17 01:38:18;;;;;;;8.90;8.03;;;;;;;23.12;47.81;100972.09;5038496;28;20554;-69
2021/06/17 01:40:45;;;;;;;9.43;7.67;;;;;;;22.70;48.62;100970.16;5037582;28;20457;-69
2021/06/17 01:43:11;;;;;;;7.67;7.07;;;;;;;22.78;48.44;100965.44;5038749;28;20819;-69
2021/06/17 01:45:36;;;;;;;7.87;7.17;;;;;;;22.59;48.44;100973.22;5038323;28;20474;-68
2021/06/17 01:48:02;;;;;;;7.50;6.90;;;;;;;22.94;48.10;100972.84;5038247;28;20424;-68
2021/06/17 01:50:28;;;;;;;8.00;7.20;;;;;;;22.37;49.14;100975.81;5038323;28;20452;-68
2021/06/17 01:52:54;;;;;;;8.53;7.50;;;;;;;22.10;49.96;100970.53;5037962;28;20178;-69
2021/06/17 01:55:21;;;;;;;7.77;6.90;;;;;;;22.39;48.79;100965.13;5039809;28;20440;-69
2021/06/17 01:57:47;;;;;;;8.03;7.23;;;;;;;22.39;49.02;100973.09;5044416;28;20169;-69
2021/06/17 02:00:13;;;;;;;7.90;6.53;;;;;;;22.32;48.68;100969.75;5056753;28;20814;-69
2021/06/17 02:02:39;;;;;;;7.67;7.00;;;;;;;22.56;47.98;100960.06;5057975;28;20464;-70
2021/06/17 02:05:06;;;;;;;9.50;6.90;;;;;;;22.57;48.54;100964.47;5048045;28;20429;-69
2021/06/17 02:07:32;;;;;;;7.17;6.57;;;;;;;22.42;48.43;100970.31;5042267;28;20504;-69
2021/06/17 02:09:58;;;;;;;7.50;6.70;;;;;;;22.09;49.66;100966.13;5057932;28;20428;-68
2021/06/17 02:12:23;;;;;;;7.20;6.47;;;;;;;22.88;47.68;100964.16;5058257;28;20219;-69
2021/06/17 02:14:49;;;;;;;7.53;6.83;;;;;;;22.12;49.03;100968.69;5050597;28;20218;-69
2021/06/17 02:17:15;;;;;;;7.40;6.80;;;;;;;22.28;49.26;100979.63;5058262;28;20315;-69
2021/06/17 02:19:41;;;;;;;9.73;6.83;;;;;;;22.29;48.91;100972.53;5061565;28;20407;-69
2021/06/17 02:22:07;;;;;;;7.10;6.40;;;;;;;22.33;49.04;100977.66;5061101;28;20673;-69
2021/06/17 02:24:35;;;;;;;7.40;6.70;;;;;;;22.58;48.23;100973.28;5043993;28;20232;-69
2021/06/17 02:27:07;;;;;;;7.37;6.73;;;;;;;22.31;48.62;100978.66;5041812;28;20424;-69
2021/06/17 02:29:36;;;;;;;7.13;6.53;;;;;;;22.61;48.17;100968.75;5041059;28;20424;-69
2021/06/17 02:32:02;;;;;;;7.53;6.93;;;;;;;22.17;49.08;100966.72;5041063;28;20436;-69
2021/06/17 02:34:28;;;;;;;7.77;6.93;;;;;;;21.99;49.79;100970.88;5056751;28;20474;-69
2021/06/17 02:36:53;;;;;;;10.90;6.70;;;;;;;21.89;49.60;100965.94;5044785;28;20437;-69
2021/06/17 02:39:21;;;;;;;7.20;6.70;;;;;;;22.03;49.80;100955.72;5061592;28;20403;-69
2021/06/17 02:41:50;;;;;;;11.40;7.20;;;;;;;21.91;49.45;100958.81;5049466;28;20193;-69
2021/06/17 02:44:17;;;;;;;7.37;6.70;;;;;;;22.07;48.91;100952.06;5041520;28;20474;-69
2021/06/17 02:46:43;;;;;;;7.20;6.50;;;;;;;21.98;49.02;100949.72;5051208;28;20735;-69
2021/06/17 02:49:08;;;;;;;7.20;6.43;;;;;;;21.91;49.13;100950.84;5056450;28;20444;-69
2021/06/17 02:51:34;;;;;;;7.53;6.80;;;;;;;21.91;49.49;100949.06;5041628;28;20190;-69
2021/06/17 02:53:59;;;;;;;7.07;6.47;;;;;;;22.24;48.63;100947.91;5043017;28;20213;-69
2021/06/17 02:56:29;;;;;;;10.27;6.90;;;;;;;21.46;49.82;100945.22;5041362;28;20582;-69
2021/06/17 02:59:15;;;;;;;6.87;6.27;;;;;;;21.78;49.31;100945.09;5040681;28;20194;-69
2021/06/17 03:01:48;;;;;;;7.27;6.60;;;;;;;21.75;49.34;100947.84;5051789;28;20506;-68
2021/06/17 03:04:22;;;;;;;6.90;6.13;;;;;;;21.95;49.04;100944.50;5060573;28;20418;-68
2021/06/17 03:06:52;;;;;;;7.60;6.90;;;;;;;21.60;49.77;100941.28;5060947;28;20435;-69
2021/06/17 03:09:25;;;;;;;7.30;6.37;;;;;;;21.67;49.73;100938.34;5054008;28;20515;-69
2021/06/17 03:11:53;;;;;;;8.03;6.60;;;;;;;21.86;48.85;100943.88;5040994;28;20474;-69
2021/06/17 03:14:22;;;;;;;7.33;6.30;;;;;;;21.99;48.88;100935.53;5054868;28;20517;-69
2021/06/17 03:16:51;;;;;;;7.30;6.53;;;;;;;21.91;48.80;100948.19;5041440;28;20429;-68
2021/06/17 03:19:18;;;;;;;6.73;6.17;;;;;;;22.10;48.19;100941.31;5060705;28;20735;-69
2021/06/17 03:21:50;;;;;;;7.03;6.17;;;;;;;22.08;48.52;100939.63;5060080;28;20748;-69
2021/06/17 03:24:17;;;;;;;6.90;6.20;;;;;;;21.99;48.54;100940.84;5060074;28;20818;-69
2021/06/17 03:26:43;;;;;;;6.80;6.20;;;;;;;22.19;48.22;100938.34;5056405;28;20491;-67
2021/06/17 03:29:11;;;;;;;7.20;6.47;;;;;;;21.90;49.01;100941.16;5039908;28;20702;-69
2021/06/17 03:31:37;;;;;;;6.93;6.43;;;;;;;21.69;49.13;100947.13;5040691;28;20417;-68
2021/06/17 03:34:03;;;;;;;6.50;5.90;;;;;;;21.92;48.78;100956.09;5040373;28;20457;-68
2021/06/17 03:36:29;;;;;;;7.40;6.50;;;;;;;22.04;48.29;100952.13;5042555;28;20695;-69
2021/06/17 03:38:55;;;;;;;7.27;6.50;;;;;;;22.75;46.88;100949.63;5054199;28;20428;-68
2021/06/17 03:41:21;;;;;;;6.87;6.27;;;;;;;22.94;46.45;100948.91;5049449;28;20424;-68
2021/06/17 03:43:47;;;;;;;7.00;6.30;;;;;;;22.50;47.42;100953.19;5039778;28;20228;-68
2021/06/17 03:46:13;;;;;;;7.37;5.90;;;;;;;23.35;45.12;100947.31;5039813;28;20529;-68
2021/06/17 03:48:40;;;;;;;6.47;5.97;;;;;;;23.97;43.63;100938.56;5052837;28;20499;-68
2021/06/17 03:51:06;;;;;;;6.73;6.03;;;;;;;23.91;44.00;100944.16;5044530;28;20436;-68
2021/06/17 03:53:31;;;;;;;7.37;6.73;;;;;;;23.35;44.95;100938.44;5059488;28;20460;-68
2021/06/17 03:55:57;;;;;;;7.13;6.43;;;;;;;23.72;44.03;100936.94;5060486;28;20201;-69
2021/06/17 03:58:26;;;;;;;9.50;6.80;;;;;;;23.48;44.73;100926.38;5043266;28;20236;-68
2021/06/17 04:00:54;;;;;;;7.90;6.83;;;;;;;23.34;44.48;100934.03;5051345;28;20178;-68
2021/06/17 04:03:20;;;;;;;12.43;7.00;;;;;;;23.13;45.45;100939.31;5039521;28;20433;-69
2021/06/17 04:05:45;;;;;;;7.40;6.70;;;;;;;23.82;43.16;100935.59;5039508;28;20417;-68
2021/06/17 04:08:12;;;;;;;7.10;6.50;;;;;;;24.95;40.93;100932.41;5055201;28;20192;-68
2021/06/17 04:10:41;;;;;;;7.27;6.57;;;;;;;25.28;40.22;100919.22;5045696;28;20173;-69
2021/06/17 04:13:08;;;;;;;6.73;6.13;;;;;;;25.30;40.36;100927.16;5059782;28;20424;-69
2021/06/17 04:15:34;;;;;;;7.67;6.70;;;;;;;24.68;40.99;100925.63;5057293;28;20432;-68
2021/06/17 04:18:01;;;;;;;8.00;6.30;;;;;;;25.03;40.56;100923.09;5046147;28;20428;-68
2021/06/17 04:20:30;;;;;;;6.87;6.23;;;;;;;25.51;39.35;100931.47;5039099;28;20692;-68
2021/06/17 04:22:57;;;;;;;5.90;5.40;;;;;;;25.58;39.53;100931.16;5041350;28;20427;-68
2021/06/17 04:25:22;;;;;;;6.13;5.63;;;;;;;25.57;39.41;100918.75;5039097;28;20476;-68
2021/06/17 04:27:50;;;;;;;8.07;6.00;;;;;;;25.49;39.38;100917.34;5050547;28;20436;-68
2021/06/17 04:30:17;;;;;;;6.80;5.87;;;;;;;26.02;37.89;100926.25;5059650;28;20173;-68
2021/06/17 04:32:44;;;;;;;8.17;6.17;;;;;;;26.62;37.36;100910.63;5047849;28;20451;-69
2021/06/17 04:35:11;;;;;;;8.00;5.90;;;;;;;26.60;37.31;100916.03;5059479;28;20459;-68
2021/06/17 04:37:36;;;;;;;7.03;5.53;;;;;;;27.04;35.97;100914.53;5059992;28;20412;-68
2021/06/17 04:40:02;;;;;;;7.13;5.80;;;;;;;27.25;35.78;100912.41;5054038;28;20535;-69
2021/06/17 04:42:29;;;;;;;6.80;6.10;;;;;;;26.48;37.39;100909.56;5039284;28;20544;-68
2021/06/17 04:44:54;;;;;;;5.80;5.20;;;;;;;26.41;37.27;100908.16;5039436;28;20842;-68
2021/06/17 04:47:21;;;;;;;9.30;5.83;;;;;;;26.09;38.22;100918.78;5039367;28;20431;-68
2021/06/17 04:49:47;;;;;;;7.07;5.93;;;;;;;26.71;36.72;100916.34;5044626;28;20260;-68
2021/06/17 04:52:14;;;;;;;10.37;6.53;;;;;;;26.65;37.28;100905.94;5059489;28;20416;-68
2021/06/17 04:54:40;;;;;;;14.23;6.20;;;;;;;26.41;37.50;100916.16;5058281;28;20776;-68
2021/06/17 04:57:05;;;;;;;7.07;5.40;;;;;;;26.96;36.70;100903.41;5058247;28;20466;-68
2021/06/17 04:59:30;;;;;;;8.83;5.93;;;;;;;26.43;37.14;100913.44;5056694;28;20197;-68
2021/06/17 05:01:57;;;;;;;9.77;6.10;;;;;;;27.73;35.25;100912.34;5056889;28;20231;-68
2021/06/17 05:04:22;;;;;;;7.93;5.70;;;;;;;27.77;34.98;100913.88;5038953;28;20429;-68
2021/06/17 05:07:09;;;;;;;9.57;6.37;;;;;;;27.61;35.00;100923.78;5048691;28;20433;-69
2021/06/17 05:12:19;;;;;;;6.80;6.20;;;;;;;28.27;34.32;100913.59;5044466;28;20458;-69
2021/06/17 05:14:45;;;;;;;7.30;6.17;;;;;;;27.73;34.41;100917.69;5058517;28;20853;-69
2021/06/17 05:17:10;;;;;;;6.33;5.70;;;;;;;29.22;32.51;100918.22;5057943;28;20227;-69
2021/06/17 05:19:35;;;;;;;6.60;6.03;;;;;;;28.44;33.58;100912.53;5039553;28;20242;-68
2021/06/17 05:22:02;;;;;;;5.93;5.43;;;;;;;27.30;35.62;100921.03;5044548;28;20520;-70
2021/06/17 05:24:27;;;;;;;7.83;5.70;;;;;;;28.90;33.15;100913.19;5038258;28;20491;-68
2021/06/17 05:26:53;;;;;;;7.70;6.20;;;;;;;27.38;35.20;100918.81;5037704;28;20417;-69
2021/06/17 05:29:18;;;;;;;6.33;5.73;;;;;;;29.24;32.16;100924.38;5043555;28;20185;-69
2021/06/17 05:31:44;;;;;;;6.17;5.67;;;;;;;28.63;33.78;100921.16;5058286;28;20173;-69
2021/06/17 05:34:09;;;;;;;7.00;6.27;;;;;;;28.49;33.55;100927.38;5057895;28;20609;-70
2021/06/17 05:36:34;;;;;;;6.37;5.77;;;;;;;29.24;32.74;100915.44;5058457;28;20276;-69
2021/06/17 05:38:59;;;;;;;7.00;6.40;;;;;;;29.04;32.78;100914.94;5055077;28;20229;-69
2021/06/17 05:41:25;;;;;;;6.70;6.10;;;;;;;28.69;33.84;100919.94;5038458;28;20193;-69
2021/06/17 05:43:50;;;;;;;7.47;6.83;;;;;;;28.56;33.74;100922.47;5041564;28;20188;-69
2021/06/17 05:46:16;;;;;;;7.97;6.50;;;;;;;29.99;31.57;100925.66;5038325;28;20174;-69
2021/06/17 05:48:42;;;;;;;8.07;6.43;;;;;;;30.40;30.49;100918.34;5044541;28;20182;-68
2021/06/17 05:51:07;;;;;;;6.60;6.03;;;;;;;30.16;31.42;100920.94;5054527;28;20192;-68
2021/06/17 05:53:33;;;;;;;7.93;6.27;;;;;;;29.03;33.73;100928.47;5056200;28;20456;-68
2021/06/17 05:55:58;;;;;;;6.80;6.17;;;;;;;28.08;34.68;100924.56;5058120;28;20174;-69
2021/06/17 05:58:24;;;;;;;7.20;6.00;;;;;;;29.37;33.02;100923.59;5052126;28;20197;-68
2021/06/17 06:00:49;;;;;;;7.77;6.50;;;;;;;30.15;32.07;100930.00;5056192;28;20217;-69
2021/06/17 06:03:14;;;;;;;6.80;6.20;;;;;;;30.23;31.78;100935.69;5057482;28;20257;-69
2021/06/17 06:05:40;;;;;;;6.60;6.00;;;;;;;30.45;31.14;100936.88;5057786;28;20256;-68
2021/06/17 06:08:11;;;;;;;7.20;6.07;;;;;;;31.42;29.72;100940.59;5053685;28;20260;-68
2021/06/17 06:10:38;;;;;;;7.47;5.70;;;;;;;30.95;30.87;100934.19;5039449;28;20174;-68
2021/06/17 06:13:03;;;;;;;6.20;5.70;;;;;;;31.51;29.70;100931.78;5050049;28;20509;-69
2021/06/17 06:15:33;;;;;;;7.93;6.70;;;;;;;30.83;31.02;100935.94;5045197;28;20440;-69
2021/06/17 06:18:06;;;;;;;7.63;6.43;;;;;;;29.92;32.97;100939.63;5038077;28;20241;-68
2021/06/17 06:20:32;;;;;;;7.20;6.60;;;;;;;31.49;30.32;100924.81;5042384;28;20526;-69
2021/06/17 06:22:58;;;;;;;7.97;7.37;;;;;;;29.99;32.44;100936.41;5055410;28;20423;-69
2021/06/17 06:25:23;;;;;;;7.57;6.37;;;;;;;30.86;31.19;100936.56;5037823;28;20944;-69
2021/06/17 06:27:48;;;;;;;8.17;6.53;;;;;;;31.82;29.80;100936.69;5045692;28;20177;-70
2021/06/17 06:30:14;;;;;;;7.03;6.37;;;;;;;32.20;29.26;100932.88;5042320;28;20269;-68
2021/06/17 06:32:39;;;;;;;6.90;6.40;;;;;;;30.92;31.57;100943.34;5038717;28;20564;-69
2021/06/17 06:35:06;;;;;;;6.93;6.43;;;;;;;31.13;30.94;100953.53;5037791;28;20202;-69
2021/06/17 06:37:32;;;;;;;7.33;6.83;;;;;;;30.86;31.56;100954.56;5038097;28;20171;-68
2021/06/17 06:39:57;;;;;;;7.00;6.40;;;;;;;31.86;29.58;100947.13;5039258;28;20522;-69
2021/06/17 06:42:22;;;;;;;8.30;6.80;;;;;;;32.69;28.76;100945.16;5037477;28;20174;-69
2021/06/17 06:44:48;;;;;;;7.87;6.47;;;;;;;32.27;29.01;100947.59;5037953;28;20193;-69
2021/06/17 06:47:13;;;;;;;7.53;6.83;;;;;;;31.79;29.88;100945.03;5037576;28;20254;-70
2021/06/17 06:49:38;;;;;;;9.83;6.67;;;;;;;32.60;29.02;100948.59;5037351;28;20181;-68
2021/06/17 06:52:04;;;;;;;7.50;6.90;;;;;;;31.51;30.67;100952.50;5038740;28;20587;-69
2021/06/17 06:54:29;;;;;;;7.77;6.60;;;;;;;33.64;28.20;100946.38;5037422;28;20210;-68
2021/06/17 06:56:54;;;;;;;7.07;6.30;;;;;;;33.37;28.35;100955.00;5041389;28;20174;-68
2021/06/17 06:59:20;;;;;;;8.30;7.50;;;;;;;31.55;31.41;100957.56;5057643;28;20173;-68
2021/06/17 07:01:46;;;;;;;7.27;6.67;;;;;;;29.76;33.78;100961.31;5052439;28;20462;-68
2021/06/17 07:04:11;;;;;;;7.60;6.73;;;;;;;30.96;32.42;100960.13;5058944;28;20232;-68
2021/06/17 07:06:38;;;;;;;9.27;6.77;;;;;;;31.19;32.38;100967.41;5041513;28;20813;-70
2021/06/17 07:09:04;;;;;;;7.93;7.13;;;;;;;32.44;30.23;100959.75;5040298;28;20174;-71
2021/06/17 07:11:30;;;;;;;8.60;6.87;;;;;;;31.94;30.92;100961.88;5040672;28;20455;-70
2021/06/17 07:13:55;;;;;;;7.43;6.83;;;;;;;32.14;30.42;100960.31;5041439;28;20204;-69
2021/06/17 07:16:20;;;;;;;7.67;7.07;;;;;;;30.73;33.04;100970.75;5048075;28;20181;-69
2021/06/17 07:18:45;;;;;;;7.47;6.87;;;;;;;30.39;33.15;100970.41;5045280;28;20186;-69
2021/06/17 07:21:13;;;;;;;9.13;7.13;;;;;;;32.85;29.29;100955.56;5040953;28;20572;-72
2021/06/17 07:23:39;;;;;;;7.57;6.30;;;;;;;32.91;30.06;100957.78;5049896;28;20198;-69
2021/06/17 07:26:04;;;;;;;9.40;7.13;;;;;;;33.80;27.98;100964.03;5071983;28;20601;-70
2021/06/17 07:28:29;;;;;;;6.93;6.43;;;;;;;34.10;28.50;100963.25;5054366;28;20218;-69
2021/06/17 07:30:55;;;;;;;8.40;7.60;;;;;;;31.72;31.65;100960.81;5040181;28;20223;-72
2021/06/17 07:33:20;;;;;;;8.10;7.13;;;;;;;32.02;31.26;100967.50;5039920;28;20579;-68
2021/06/17 07:35:46;;;;;;;7.40;6.70;;;;;;;32.96;30.11;100962.78;5058638;28;20181;-68
2021/06/17 07:38:11;;;;;;;7.30;6.70;;;;;;;33.66;28.64;100965.19;5040789;28;20192;-68
2021/06/17 07:40:40;;;;;;;7.37;6.80;;;;;;;34.62;27.27;100959.66;5058956;28;20187;-70
2021/06/17 07:43:06;;;;;;;7.20;6.60;;;;;;;35.25;26.63;100954.84;5080469;28;20211;-68
2021/06/17 07:45:31;;;;;;;8.43;7.13;;;;;;;33.72;27.93;100964.63;5049029;28;20472;-68
2021/06/17 07:47:57;;;;;;;7.83;7.10;;;;;;;33.81;29.13;100968.44;5040131;28;20426;-69
2021/06/17 07:50:22;;;;;;;7.67;6.87;;;;;;;35.19;26.62;100955.38;5043237;28;20182;-69
2021/06/17 07:52:47;;;;;;;7.73;7.03;;;;;;;35.41;26.94;100961.56;5057872;28;20256;-69
2021/06/17 07:55:13;;;;;;;7.73;6.97;;;;;;;35.73;26.00;100963.97;5048996;28;20218;-69
2021/06/17 07:57:38;;;;;;;8.13;7.10;;;;;;;33.93;28.96;100978.22;5041311;28;20186;-69
2021/06/17 08:00:06;;;;;;;8.07;7.30;;;;;;;33.90;29.30;100973.91;5039831;28;20208;-69
2021/06/17 08:02:31;;;;;;;7.60;6.80;;;;;;;33.55;29.75;100969.63;5039869;28;20196;-68
2021/06/17 08:04:56;;;;;;;7.80;7.00;;;;;;;33.70;29.36;100972.03;5040234;28;20492;-68
2021/06/17 08:07:22;;;;;;;8.00;7.27;;;;;;;35.51;26.94;100965.16;5039574;28;20209;-69
2021/06/17 08:09:47;;;;;;;7.13;6.50;;;;;;;36.55;25.16;100961.69;5039605;28;20185;-68
2021/06/17 08:12:12;;;;;;;7.27;6.67;;;;;;;33.77;29.44;100967.81;5039927;28;20170;-69
2021/06/17 08:14:37;;;;;;;8.27;7.20;;;;;;;34.51;28.62;100969.59;5038411;28;20257;-68
2021/06/17 08:17:03;;;;;;;8.73;7.07;;;;;;;35.78;27.03;100969.00;5050156;28;20243;-68
2021/06/17 08:19:29;;;;;;;10.63;6.90;;;;;;;34.73;28.32;100970.38;5043490;28;20485;-69
2021/06/17 08:21:56;;;;;;;8.00;6.70;;;;;;;36.48;25.88;100957.00;5048086;28;20201;-69
2021/06/17 08:24:22;;;;;;;8.20;6.80;;;;;;;36.73;25.89;100952.72;5042207;28;20237;-73
2021/06/17 08:26:47;;;;;;;7.33;6.73;;;;;;;34.83;28.71;100963.19;5044131;28;20523;-69
2021/06/17 08:29:13;;;;;;;10.03;7.10;;;;;;;32.70;31.46;100957.66;5039078;28;20209;-67
2021/06/17 08:31:40;;;;;;;8.03;7.43;;;;;;;35.62;27.47;100953.31;5059627;28;20258;-70
2021/06/17 08:34:05;;;;;;;8.17;7.33;;;;;;;34.55;29.38;100949.38;5038698;28;20202;-70
2021/06/17 08:36:31;;;;;;;8.10;7.30;;;;;;;36.84;25.88;100938.97;5037806;28;20868;-70
2021/06/17 08:38:56;;;;;;;9.43;6.83;;;;;;;35.00;28.85;100944.53;5047755;28;20244;-70
2021/06/17 08:41:21;;;;;;;10.13;6.90;;;;;;;34.50;29.29;100948.06;5044182;28;20177;-70
2021/06/17 08:43:47;;;;;;;10.03;7.10;;;;;;;35.35;27.53;100937.75;5051828;28;20484;-70
2021/06/17 08:46:12;;;;;;;11.37;7.00;;;;;;;36.50;26.52;100933.28;5059341;28;20176;-70
2021/06/17 08:48:39;;;;;;;8.33;7.30;;;;;;;36.29;27.05;100930.75;5050528;28;20452;-70
2021/06/17 08:51:04;;;;;;;7.70;6.83;;;;;;;36.40;26.79;100930.59;5045954;28;20459;-70
2021/06/17 08:53:30;;;;;;;7.87;7.07;;;;;;;35.89;27.24;100930.88;5055085;28;20463;-69
2021/06/17 08:55:55;;;;;;;8.67;7.87;;;;;;;37.19;25.33;100926.41;5052626;28;20268;-69
2021/06/17 08:58:21;;;;;;;11.83;7.43;;;;;;;37.39;25.58;100929.00;5051340;28;20497;-71
2021/06/17 09:00:47;;;;;;;8.20;7.50;;;;;;;36.91;26.03;100923.78;5048086;28;20192;-70
2021/06/17 09:03:18;;;;;;;9.87;7.23;;;;;;;36.99;26.00;100919.41;5052078;28;20170;-69
2021/06/17 09:05:52;;;;;;;9.87;7.97;;;;;;;35.54;28.64;100918.75;5045987;28;20478;-68
2021/06/17 09:08:30;;;;;;;8.07;7.30;;;;;;;35.24;29.48;100914.34;5052775;28;20428;-69
2021/06/17 09:10:55;;;;;;;9.80;7.33;;;;;;;34.79;29.73;100914.81;5043351;28;20530;-69
2021/06/17 09:13:22;;;;;;;7.87;6.90;;;;;;;36.03;28.11;100909.69;5047383;28;20718;-68
2021/06/17 09:15:53;;;;;;;8.83;7.77;;;;;;;33.61;30.98;100924.16;5038553;28;20185;-70
2021/06/17 09:18:25;;;;;;;8.10;7.50;;;;;;;34.71;30.00;100907.41;5041724;28;20435;-69
2021/06/17 09:20:52;;;;;;;9.00;8.03;;;;;;;36.03;27.81;100915.13;5058712;28;20407;-69
2021/06/17 09:23:23;;;;;;;8.23;7.53;;;;;;;34.92;29.53;100910.00;5053747;28;20753;-69
2021/06/17 09:25:54;;;;;;;9.10;8.20;;;;;;;34.71;30.30;100907.41;5044327;28;20901;-71
2021/06/17 09:28:20;;;;;;;15.50;8.70;;;;;;;35.88;28.33;100891.16;5043979;28;20510;-69
2021/06/17 09:30:45;;;;;;;9.10;8.00;;;;;;;33.90;31.38;100902.75;5049025;28;20435;-69
2021/06/17 09:33:13;;;;;;;8.63;7.93;;;;;;;37.20;26.56;100890.06;5038257;28;20185;-69
2021/06/17 09:35:55;;;;;;;8.47;7.70;;;;;;;34.81;29.61;100880.31;5040939;28;20599;-69
2021/06/17 09:38:20;;;;;;;9.17;8.37;;;;;;;36.92;27.34;100884.69;5047666;28;20904;-69
2021/06/17 09:40:49;;;;;;;8.23;7.43;;;;;;;37.75;26.16;100877.25;5053986;28;20507;-69
2021/06/17 09:43:17;;;;;;;7.97;7.17;;;;;;;37.54;26.40;100872.19;5037797;28;20208;-71
2021/06/17 09:45:54;;;;;;;10.20;8.20;;;;;;;37.11;27.20;100871.97;5038442;28;20743;-69
2021/06/17 09:48:43;;;;;;;8.20;7.40;;;;;;;37.16;26.71;100874.22;5038494;28;20833;-68
2021/06/17 09:51:27;;;;;;;9.67;7.97;;;;;;;37.35;26.98;100876.81;5046107;28;20491;-68
2021/06/17 09:54:05;;;;;;;8.20;7.60;;;;;;;35.95;29.13;100877.88;5037745;28;20903;-69
2021/06/17 09:56:33;;;;;;;8.97;8.20;;;;;;;35.65;29.13;100874.34;5038366;28;20448;-68
2021/06/17 09:58:59;;;;;;;14.33;8.17;;;;;;;34.90;30.76;100874.09;5054398;28;20446;-68
2021/06/17 10:01:34;;;;;;;9.23;8.43;;;;;;;32.31;34.92;100883.47;5047549;28;20440;-69
2021/06/17 10:04:07;;;;;;;10.70;8.70;;;;;;;34.55;31.60;100870.84;5040127;28;20189;-69
2021/06/17 10:06:34;;;;;;;8.13;7.43;;;;;;;34.90;30.71;100880.38;5041928;28;20448;-69
2021/06/17 10:09:03;;;;;;;10.27;7.73;;;;;;;35.57;29.91;100882.38;5045485;28;20494;-69
2021/06/17 10:11:29;;;;;;;9.07;8.20;;;;;;;35.34;30.16;100882.66;5043199;28;20443;-68
2021/06/17 10:13:54;;;;;;;12.03;8.07;;;;;;;34.78;31.39;100892.28;5052597;28;20580;-68
2021/06/17 10:16:20;;;;;;;9.07;8.17;;;;;;;36.91;28.24;100888.44;5040309;28;20182;-68
2021/06/17 10:18:45;;;;;;;8.77;7.90;;;;;;;37.07;27.86;100879.56;5043728;28;20235;-69
2021/06/17 10:21:13;;;;;;;8.93;8.00;;;;;;;37.18;28.46;100888.50;5036532;28;20204;-68
2021/06/17 10:23:40;;;;;;;11.27;7.70;;;;;;;36.66;28.65;100881.84;5044045;28;20272;-68
2021/06/17 10:26:06;;;;;;;9.33;7.17;;;;;;;37.09;26.79;100890.31;5037004;28;20460;-69
2021/06/17 10:28:42;;;;;;;8.13;7.50;;;;;;;37.44;26.67;100880.41;5036944;28;20976;-69
2021/06/17 10:31:08;;;;;;;8.30;7.57;;;;;;;37.96;25.72;100892.38;5047279;28;20211;-70
2021/06/17 10:33:37;;;;;;;10.13;6.80;;;;;;;37.26;26.96;100877.72;5053048;28;20891;-68
2021/06/17 10:36:37;;;;;;;7.60;6.90;;;;;;;35.80;29.24;100874.75;5051951;28;20469;-69
2021/06/17 10:39:12;;;;;;;8.63;7.70;;;;;;;37.13;27.52;100880.84;5051778;28;20484;-67
2021/06/17 10:41:54;;;;;;;9.37;7.50;;;;;;;36.44;27.96;100879.56;5041849;28;20431;-68
2021/06/17 10:44:41;;;;;;;8.43;7.83;;;;;;;34.49;30.65;100876.84;5041519;28;20531;-68
2021/06/17 10:47:06;;;;;;;7.90;7.30;;;;;;;36.54;28.05;100866.78;5043541;28;20435;-68
2021/06/17 10:49:52;;;;;;;8.27;7.67;;;;;;;36.00;28.75;100864.72;5040584;28;20513;-67
2021/06/17 10:52:25;;;;;;;8.57;7.47;;;;;;;35.44;29.12;100854.69;5044432;28;20626;-66
2021/06/17 10:55:21;;;;;;;8.70;8.00;;;;;;;36.53;27.59;100860.47;5044893;28;20470;-68
2021/06/17 10:57:48;;;;;;;9.47;8.10;;;;;;;36.04;28.33;100860.69;5038356;28;20458;-68
2021/06/17 11:00:27;;;;;;;8.63;7.90;;;;;;;36.31;28.42;100859.00;5046171;28;20455;-67
2021/06/17 11:02:55;;;;;;;11.97;7.97;;;;;;;36.51;28.29;100850.81;5051355;28;20428;-66
2021/06/17 11:05:32;;;;;;;8.30;7.57;;;;;;;35.52;29.26;100846.69;5045658;28;20411;-67
2021/06/17 11:08:13;;;;;;;7.77;7.03;;;;;;;36.00;28.30;100847.59;5053842;28;20434;-67
2021/06/17 11:10:53;;;;;;;8.23;7.40;;;;;;;34.44;30.72;100854.75;5044239;28;20447;-68
2021/06/17 11:13:39;;;;;;;8.40;7.53;;;;;;;35.17;29.10;100867.09;5046556;28;20438;-67
2021/06/17 11:16:14;;;;;;;8.37;7.77;;;;;;;34.99;28.91;100848.88;5060756;28;20526;-66
2021/06/17 11:21:30;;;;;;;8.97;7.97;;;;;;;35.42;28.67;100849.44;5049722;28;20498;-67
2021/06/17 11:24:13;;;;;;;10.40;7.90;;;;;;;35.96;28.31;100838.03;5045458;28;20872;-68
2021/06/17 11:26:46;;;;;;;19.33;8.37;;;;;;;35.25;28.57;100835.59;5048320;28;20476;-68
2021/06/17 11:29:21;;;;;;;9.00;8.30;;;;;;;35.31;29.09;100823.31;5053700;28;20871;-65
2021/06/17 11:31:52;;;;;;;8.47;7.77;;;;;;;36.08;27.39;100820.56;5048714;28;20773;-68
2021/06/17 11:34:30;;;;;;;9.60;8.13;;;;;;;35.47;28.21;100822.75;5048587;28;20485;-68